Karshi, Uzbekistan
Current Conditions -  °F | °C
As of 3:00 PM on Sunday 23 Nov 2014 (Local Time) from UTSK Reporting Station
Clear Clear  
Wind Chill: 73°   Ceiling: Unl
Heat Index: 73°   Visibility: 6mi
Dew Point: 32°   Wind: 10mph
Humidity: 22%   Direction: 210°SSW
Pressure: 29.8"   Gusts: NA
Location:  38.86°N, 65.79°E
Report Text: UTSK 231000Z 21009KT CAVOK 23/00 Q1009 R16/CLRD70
Loading
Personal Weather Stations






























Interactive Weather Map New forecast layout! Learn more

10-Day Weather Forecast

Advertisements
Track Severe Weather on mobile